Cottonwood, Utah
Current Conditions -  °F | °C
As of 6:53 PM on Saturday 20 Dec 2014 (Local Time) from KSLC Reporting Station
Overcast Overcast  
Wind Chill: 35°   Ceiling: 7000
Heat Index: 41°   Visibility: 10mi
Dew Point: 34°   Wind: 9mph
Humidity: 76%   Direction: 150°SSE
Pressure: 30.05"   Gusts: NA
Location:  40.6222°N, 111.808°W
Report Text: KSLC 210153Z 15008KT 10SM FEW045 OVC070 05/01 A3005 RMK AO2 SLP175 T00500011
Loading
Personal Weather Stations






























Interactive Weather Map New forecast layout! Learn more

10-Day Weather Forecast

Advertisements
Track Severe Weather on mobile